Time;durP1;ratioP1;P1;durP2;ratioP2;P2;SDS_P1;SDS_P2;PMS_P1;PMS_P2;Temp;Humidity;BMP_temperature;BMP_pressure;BME280_temperature;BME280_humidity;BME280_pressure;Samples;Min_cycle;Max_cycle;Signal;HPM_P1;HPM_P2
2021/10/24 00:00:37;;;;;;;16.10;11.77;;;6.50;98.30;;;;;;5124579;23;20516;-84
2021/10/24 00:02:41;;;;;;;17.40;11.43;;;6.60;98.30;;;;;;5124847;23;20816;-84
2021/10/24 00:04:45;;;;;;;15.80;10.93;;;6.50;98.30;;;;;;5124719;23;20450;-84
2021/10/24 00:06:49;;;;;;;13.10;11.53;;;6.50;98.30;;;;;;5124339;23;20485;-85
2021/10/24 00:08:52;;;;;;;14.00;10.83;;;6.50;98.30;;;;;;5124283;23;20429;-83
2021/10/24 00:10:55;;;;;;;16.10;11.23;;;6.50;98.30;;;;;;5125043;23;20426;-85
2021/10/24 00:12:58;;;;;;;13.80;11.63;;;6.40;98.30;;;;;;5124499;23;20500;-84
2021/10/24 00:15:01;;;;;;;14.77;10.80;;;6.50;98.30;;;;;;5125046;23;20429;-85
2021/10/24 00:17:05;;;;;;;14.13;10.70;;;6.50;98.30;;;;;;5116487;23;20515;-85
2021/10/24 00:19:08;;;;;;;12.90;9.90;;;6.50;98.30;;;;;;5125327;23;20484;-85
2021/10/24 00:21:13;;;;;;;13.77;11.40;;;6.40;98.30;;;;;;5125207;23;20422;-84
2021/10/24 00:23:16;;;;;;;18.90;10.40;;;6.40;98.30;;;;;;5124271;23;20505;-84
2021/10/24 00:25:19;;;;;;;15.43;10.77;;;6.40;98.30;;;;;;5124185;23;20418;-84
2021/10/24 00:27:23;;;;;;;14.10;10.63;;;6.50;98.30;;;;;;5115731;23;20465;-84
2021/10/24 00:29:26;;;;;;;18.60;10.93;;;6.50;98.30;;;;;;5124203;23;20533;-84
2021/10/24 00:31:29;;;;;;;13.47;10.07;;;6.40;98.30;;;;;;5125233;23;20454;-84
2021/10/24 00:33:33;;;;;;;14.10;10.97;;;6.40;98.30;;;;;;5124117;23;20450;-84
2021/10/24 00:35:54;;;;;;;21.90;11.37;;;6.40;98.30;;;;;;5124044;23;20911;-84
2021/10/24 00:37:58;;;;;;;16.87;10.30;;;6.40;98.30;;;;;;5124106;23;20429;-84
2021/10/24 00:40:02;;;;;;;13.07;10.70;;;6.40;98.30;;;;;;5124504;23;20493;-85
2021/10/24 00:42:20;;;;;;;14.33;9.50;;;6.40;98.30;;;;;;5125119;23;20431;-84
2021/10/24 00:44:25;;;;;;;12.87;9.53;;;6.40;98.30;;;;;;5124534;23;20454;-85
2021/10/24 00:46:28;;;;;;;20.03;10.30;;;6.40;98.30;;;;;;5124812;23;20426;-85
2021/10/24 00:48:35;;;;;;;13.73;9.40;;;6.40;98.30;;;;;;5124720;23;20495;-84
2021/10/24 00:50:38;;;;;;;15.83;9.23;;;6.40;98.30;;;;;;5125181;23;20759;-85
2021/10/24 00:52:42;;;;;;;14.10;9.60;;;6.40;98.30;;;;;;5125423;23;20389;-83
2021/10/24 00:54:49;;;;;;;15.27;9.20;;;6.30;98.30;;;;;;5125219;23;20426;-85
2021/10/24 00:56:54;;;;;;;13.83;9.33;;;6.40;98.30;;;;;;5125028;23;20887;-84
2021/10/24 00:58:57;;;;;;;13.17;8.90;;;6.40;98.30;;;;;;5124887;23;20432;-84
2021/10/24 01:01:02;;;;;;;11.90;8.70;;;6.30;98.30;;;;;;5124283;23;20516;-83
2021/10/24 01:03:08;;;;;;;11.80;9.00;;;6.40;98.30;;;;;;5124525;23;20445;-85
2021/10/24 01:05:13;;;;;;;14.77;8.77;;;6.30;98.30;;;;;;5125566;23;20441;-84
2021/10/24 01:07:17;;;;;;;8.83;7.47;;;6.50;98.30;;;;;;5125819;23;20430;-85
2021/10/24 01:09:22;;;;;;;10.00;8.37;;;6.40;98.30;;;;;;5126272;23;20449;-83
2021/10/24 01:11:28;;;;;;;11.70;8.33;;;6.40;98.30;;;;;;5126415;23;20808;-85
2021/10/24 01:13:35;;;;;;;11.80;8.07;;;6.40;98.30;;;;;;5126910;23;20437;-85
2021/10/24 01:15:40;;;;;;;14.60;8.20;;;6.40;98.30;;;;;;5125910;23;20444;-85
2021/10/24 01:17:43;;;;;;;10.97;8.20;;;6.40;98.30;;;;;;5125407;23;20932;-85
2021/10/24 01:19:46;;;;;;;9.07;7.83;;;6.40;98.30;;;;;;5125883;23;20423;-84
2021/10/24 01:21:51;;;;;;;10.20;7.33;;;6.40;98.30;;;;;;5126184;23;20445;-84
2021/10/24 01:23:54;;;;;;;10.07;8.63;;;6.40;98.30;;;;;;5125440;23;20449;-84
2021/10/24 01:25:58;;;;;;;13.97;8.50;;;6.40;98.30;;;;;;5126086;23;20932;-83
2021/10/24 01:28:01;;;;;;;10.43;8.73;;;6.40;98.30;;;;;;5125419;23;20504;-84
2021/10/24 01:30:06;;;;;;;11.43;8.73;;;6.40;98.30;;;;;;5126054;23;20396;-83
2021/10/24 01:32:09;;;;;;;11.03;7.83;;;6.30;98.30;;;;;;5125651;23;20504;-84
2021/10/24 01:34:13;;;;;;;13.90;8.00;;;6.30;98.30;;;;;;5125563;23;20452;-84
2021/10/24 01:36:16;;;;;;;13.80;9.60;;;6.30;98.30;;;;;;5125573;23;20904;-83
2021/10/24 01:38:22;;;;;;;9.07;7.60;;;6.30;98.30;;;;;;5125124;23;20417;-85
2021/10/24 01:40:25;;;;;;;9.80;8.70;;;6.30;98.30;;;;;;5125368;23;20427;-84
2021/10/24 01:42:28;;;;;;;9.20;7.67;;;6.40;98.30;;;;;;5126187;23;20444;-83
2021/10/24 01:44:31;;;;;;;16.83;8.47;;;6.30;98.30;;;;;;5125197;23;21022;-83
2021/10/24 01:46:35;;;;;;;11.17;7.80;;;6.30;98.30;;;;;;5125370;23;20453;-85
2021/10/24 01:48:38;;;;;;;12.53;8.50;;;6.30;98.30;;;;;;5125256;23;20433;-84
2021/10/24 01:50:41;;;;;;;11.37;7.83;;;6.20;98.30;;;;;;5126069;23;20811;-84
2021/10/24 01:52:47;;;;;;;9.40;7.63;;;6.20;98.30;;;;;;5126232;23;20461;-84
2021/10/24 01:54:51;;;;;;;9.53;8.20;;;6.30;98.30;;;;;;5136493;23;20414;-84
2021/10/24 01:56:55;;;;;;;13.97;7.30;;;6.20;98.30;;;;;;5138222;23;20452;-84
2021/10/24 01:58:58;;;;;;;17.07;9.60;;;6.30;98.30;;;;;;5135447;23;20434;-85
2021/10/24 02:01:02;;;;;;;10.83;7.53;;;6.40;98.30;;;;;;5144135;23;20422;-85
2021/10/24 02:03:05;;;;;;;12.27;7.93;;;6.40;98.30;;;;;;5128437;23;20465;-83
2021/10/24 02:05:09;;;;;;;9.37;7.53;;;6.30;98.30;;;;;;5126971;23;20446;-84
2021/10/24 02:07:12;;;;;;;13.90;7.80;;;6.40;98.30;;;;;;5126894;23;20553;-84
2021/10/24 02:09:16;;;;;;;12.90;7.43;;;6.40;98.30;;;;;;5127749;23;20430;-85
2021/10/24 02:11:21;;;;;;;10.00;7.47;;;6.30;98.30;;;;;;5120119;23;20987;-85
2021/10/24 02:13:24;;;;;;;12.90;8.07;;;6.40;98.30;;;;;;5130272;23;20446;-85
2021/10/24 02:15:27;;;;;;;16.47;7.70;;;6.50;98.30;;;;;;5129537;23;20744;-84
2021/10/24 02:17:30;;;;;;;8.63;6.83;;;6.50;98.30;;;;;;5143576;23;20432;-84
2021/10/24 02:19:33;;;;;;;15.53;7.13;;;6.40;98.30;;;;;;5145238;23;20426;-85
2021/10/24 02:21:37;;;;;;;9.70;6.97;;;6.40;98.30;;;;;;5145438;23;20420;-85
2021/10/24 02:23:41;;;;;;;10.57;6.97;;;6.50;98.30;;;;;;5145195;23;20430;-85
2021/10/24 02:25:44;;;;;;;12.83;7.10;;;6.50;98.30;;;;;;5144748;23;20472;-85
2021/10/24 02:27:49;;;;;;;11.20;7.20;;;6.60;98.30;;;;;;5133859;23;20453;-84
2021/10/24 02:29:52;;;;;;;13.83;7.83;;;6.50;98.30;;;;;;5128157;23;20468;-84
2021/10/24 02:31:55;;;;;;;10.47;7.80;;;6.50;98.30;;;;;;5127019;23;20422;-84
2021/10/24 02:33:59;;;;;;;12.30;7.37;;;6.40;98.30;;;;;;5127098;23;20947;-85
2021/10/24 02:36:02;;;;;;;10.37;7.43;;;6.50;98.30;;;;;;5125595;23;21126;-85
2021/10/24 02:38:05;;;;;;;12.27;7.13;;;6.50;98.30;;;;;;5124964;23;20428;-85
2021/10/24 02:40:10;;;;;;;9.97;6.93;;;6.50;98.30;;;;;;5125802;23;20434;-85
2021/10/24 02:42:13;;;;;;;17.80;7.93;;;6.50;98.30;;;;;;5125216;23;20479;-85
2021/10/24 02:44:18;;;;;;;9.23;7.00;;;6.50;98.30;;;;;;5125869;23;20453;-84
2021/10/24 02:46:21;;;;;;;11.97;7.70;;;6.60;98.30;;;;;;5125563;23;20426;-84
2021/10/24 02:48:24;;;;;;;12.00;7.60;;;6.50;98.30;;;;;;5125323;23;20912;-83
2021/10/24 02:50:27;;;;;;;8.80;7.03;;;6.50;98.30;;;;;;5125582;23;20755;-84
2021/10/24 02:52:30;;;;;;;7.53;6.40;;;6.50;98.30;;;;;;5125051;23;20426;-83
2021/10/24 02:54:33;;;;;;;10.60;7.17;;;6.60;98.30;;;;;;5125155;23;20426;-84
2021/10/24 02:56:37;;;;;;;13.80;8.10;;;6.50;98.30;;;;;;5125055;23;20422;-84
2021/10/24 02:58:40;;;;;;;8.70;7.30;;;6.60;98.30;;;;;;5125397;23;20438;-83
2021/10/24 03:00:44;;;;;;;12.53;7.60;;;6.60;98.30;;;;;;5125500;23;20539;-84
2021/10/24 03:02:48;;;;;;;9.73;6.43;;;6.60;98.30;;;;;;5128307;23;20421;-84
2021/10/24 03:04:51;;;;;;;12.43;7.90;;;6.50;98.30;;;;;;5130451;23;20425;-84
2021/10/24 03:06:54;;;;;;;10.87;7.10;;;6.50;98.30;;;;;;5127387;23;20447;-84
2021/10/24 03:08:58;;;;;;;11.27;7.10;;;6.60;98.30;;;;;;5115578;23;20430;-85
2021/10/24 03:11:01;;;;;;;11.37;6.90;;;6.60;98.30;;;;;;5125538;23;20426;-84
2021/10/24 03:13:06;;;;;;;10.57;6.57;;;6.50;98.30;;;;;;5125186;23;20456;-85
2021/10/24 03:15:10;;;;;;;8.23;6.40;;;6.50;98.30;;;;;;5125050;23;20816;-85
2021/10/24 03:17:15;;;;;;;11.63;7.40;;;6.50;98.30;;;;;;5125210;23;20444;-84
2021/10/24 03:19:21;;;;;;;11.70;6.40;;;6.50;98.30;;;;;;5125202;23;20426;-84
2021/10/24 03:21:27;;;;;;;9.53;6.63;;;6.40;98.30;;;;;;5125240;23;20418;-84
2021/10/24 03:23:30;;;;;;;14.97;6.67;;;6.40;98.30;;;;;;5124922;23;20537;-83
2021/10/24 03:25:34;;;;;;;10.60;7.00;;;6.40;98.30;;;;;;5125040;23;20427;-84
2021/10/24 03:27:37;;;;;;;12.40;6.63;;;6.40;98.30;;;;;;5125051;23;20467;-85
2021/10/24 03:29:40;;;;;;;12.83;7.53;;;6.40;98.30;;;;;;5125666;23;20460;-85
2021/10/24 03:31:43;;;;;;;12.77;6.80;;;6.40;98.30;;;;;;5124975;23;20488;-84
2021/10/24 03:33:48;;;;;;;9.93;6.80;;;6.40;98.30;;;;;;5124977;23;20429;-83
2021/10/24 03:35:52;;;;;;;11.80;6.87;;;6.40;98.30;;;;;;5124437;23;21065;-85
2021/10/24 03:37:55;;;;;;;9.80;6.40;;;6.40;98.30;;;;;;5124198;23;20422;-84
2021/10/24 03:39:58;;;;;;;11.13;6.70;;;6.40;98.30;;;;;;5116273;23;20517;-84
2021/10/24 03:42:01;;;;;;;10.37;6.63;;;6.40;98.30;;;;;;5124420;23;20803;-83
2021/10/24 03:44:04;;;;;;;10.83;6.70;;;6.40;98.30;;;;;;5124304;23;20449;-83
2021/10/24 03:46:08;;;;;;;11.00;6.40;;;6.30;98.30;;;;;;5124241;23;20420;-84
2021/10/24 03:48:11;;;;;;;8.17;6.17;;;6.30;98.30;;;;;;5123856;23;20400;-83
2021/10/24 03:50:18;;;;;;;11.10;7.07;;;6.30;98.30;;;;;;5115916;23;20444;-84
2021/10/24 03:52:21;;;;;;;9.07;6.60;;;6.30;98.30;;;;;;5123970;23;20457;-83
2021/10/24 03:54:24;;;;;;;13.47;6.47;;;6.30;98.30;;;;;;5124312;23;20520;-83
2021/10/24 03:56:28;;;;;;;10.30;7.53;;;6.30;98.30;;;;;;5123844;23;20431;-83
2021/10/24 03:58:31;;;;;;;12.23;7.03;;;6.20;98.30;;;;;;5123898;23;20401;-85
2021/10/24 04:00:34;;;;;;;8.50;6.87;;;6.20;98.30;;;;;;5123877;23;20404;-84
2021/10/24 04:02:51;;;;;;;10.03;6.83;;;6.20;98.30;;;;;;5124566;23;20958;-84
2021/10/24 04:04:54;;;;;;;8.43;6.00;;;6.10;98.30;;;;;;5124197;23;20400;-84
2021/10/24 04:06:59;;;;;;;13.50;6.63;;;6.10;98.30;;;;;;5123552;23;20476;-84
2021/10/24 04:09:02;;;;;;;11.40;6.83;;;6.10;98.30;;;;;;5124009;23;20425;-84
2021/10/24 04:11:05;;;;;;;13.70;6.67;;;6.10;98.30;;;;;;5123942;23;20420;-83
2021/10/24 04:13:08;;;;;;;7.87;6.23;;;6.10;98.30;;;;;;5115649;23;20507;-83
2021/10/24 04:15:12;;;;;;;10.80;6.53;;;6.10;98.30;;;;;;5124223;23;20517;-83
2021/10/24 04:17:17;;;;;;;7.97;5.80;;;6.00;98.30;;;;;;5124409;23;20927;-84
2021/10/24 04:19:20;;;;;;;8.57;5.63;;;6.00;98.30;;;;;;5123868;23;20483;-84
2021/10/24 04:21:23;;;;;;;9.87;6.47;;;6.00;98.30;;;;;;5124264;23;20426;-84
2021/10/24 04:23:27;;;;;;;11.53;6.20;;;6.00;98.30;;;;;;5124244;23;20478;-84
2021/10/24 04:25:31;;;;;;;8.43;6.37;;;6.00;98.30;;;;;;5116013;23;20927;-84
2021/10/24 04:27:34;;;;;;;9.37;6.27;;;5.90;98.30;;;;;;5123647;23;20451;-83
2021/10/24 04:29:40;;;;;;;11.03;6.50;;;5.90;98.30;;;;;;5124541;23;20892;-84
2021/10/24 04:31:43;;;;;;;9.70;6.47;;;5.90;98.30;;;;;;5123559;23;20448;-83
2021/10/24 04:33:49;;;;;;;11.50;6.80;;;5.90;98.30;;;;;;5123688;23;20452;-84
2021/10/24 04:35:52;;;;;;;16.47;7.17;;;5.90;98.30;;;;;;5123990;23;20465;-84
2021/10/24 04:37:55;;;;;;;10.10;7.03;;;5.80;98.30;;;;;;5124445;23;20520;-84
2021/10/24 04:40:00;;;;;;;15.77;7.87;;;5.80;98.30;;;;;;5127207;23;20895;-84
2021/10/24 04:42:03;;;;;;;8.27;6.63;;;5.80;98.30;;;;;;5125825;23;20449;-84
2021/10/24 04:44:06;;;;;;;13.13;7.27;;;5.80;98.30;;;;;;5117881;23;20453;-83
2021/10/24 04:46:09;;;;;;;9.30;6.83;;;5.70;98.30;;;;;;5125455;23;20429;-83
2021/10/24 04:48:13;;;;;;;9.60;7.10;;;5.70;98.30;;;;;;5125487;23;20495;-84
2021/10/24 04:50:16;;;;;;;9.33;6.10;;;5.70;98.30;;;;;;5126584;23;20432;-86
2021/10/24 04:52:20;;;;;;;8.90;6.53;;;5.70;98.30;;;;;;5126887;23;20453;-83
2021/10/24 04:54:23;;;;;;;9.20;6.83;;;5.70;98.30;;;;;;5125426;23;20442;-83
2021/10/24 04:56:28;;;;;;;9.43;7.17;;;5.70;98.30;;;;;;5117778;23;20516;-84
2021/10/24 04:58:31;;;;;;;12.37;6.80;;;5.60;98.30;;;;;;5125157;23;20426;-83
2021/10/24 05:00:34;;;;;;;12.30;7.63;;;5.60;98.30;;;;;;5125267;23;20862;-83
2021/10/24 05:02:39;;;;;;;9.30;6.40;;;5.60;98.30;;;;;;5125108;23;20407;-83
2021/10/24 05:04:42;;;;;;;8.93;7.03;;;5.60;98.30;;;;;;5125431;23;20399;-84
2021/10/24 05:06:45;;;;;;;11.33;7.10;;;5.60;98.30;;;;;;5125276;23;20450;-84
2021/10/24 05:08:51;;;;;;;15.20;7.73;;;5.50;98.30;;;;;;5125757;23;20717;-85
2021/10/24 05:10:54;;;;;;;14.60;7.73;;;5.50;98.30;;;;;;5125296;23;20725;-84
2021/10/24 05:12:58;;;;;;;10.80;7.90;;;5.60;98.30;;;;;;5125361;23;20468;-83
2021/10/24 05:15:02;;;;;;;8.80;7.53;;;5.50;98.30;;;;;;5125638;23;20461;-84
2021/10/24 05:17:05;;;;;;;9.77;7.13;;;5.50;98.30;;;;;;5119788;23;20763;-85
2021/10/24 05:19:08;;;;;;;10.57;7.10;;;5.50;98.30;;;;;;5129062;23;20436;-84
2021/10/24 05:21:11;;;;;;;10.13;6.73;;;5.50;98.30;;;;;;5125576;23;20400;-84
2021/10/24 05:23:15;;;;;;;11.57;7.80;;;5.50;98.30;;;;;;5126265;23;20532;-84
2021/10/24 05:25:31;;;;;;;9.27;7.53;;;5.50;98.30;;;;;;5131263;23;20403;-83
2021/10/24 05:27:34;;;;;;;11.60;7.70;;;5.50;98.30;;;;;;5135734;23;20461;-84
2021/10/24 05:29:39;;;;;;;11.93;7.77;;;5.50;98.30;;;;;;5141930;23;20755;-84
2021/10/24 05:31:42;;;;;;;11.93;7.73;;;5.50;98.30;;;;;;5132342;23;20428;-84
2021/10/24 05:33:45;;;;;;;13.80;8.13;;;5.40;98.30;;;;;;5125342;23;21285;-83
2021/10/24 05:35:49;;;;;;;11.30;7.80;;;5.40;98.30;;;;;;5125155;23;20499;-83
2021/10/24 05:37:53;;;;;;;12.37;7.53;;;5.40;98.30;;;;;;5116930;23;20520;-84
2021/10/24 05:39:56;;;;;;;15.60;8.37;;;5.50;98.30;;;;;;5125664;23;20513;-84
2021/10/24 05:42:00;;;;;;;10.23;8.50;;;5.40;98.30;;;;;;5124993;23;20392;-84
2021/10/24 05:44:03;;;;;;;9.60;6.70;;;5.30;98.30;;;;;;5125664;23;20447;-83
2021/10/24 05:46:09;;;;;;;19.03;8.33;;;5.30;98.30;;;;;;5124955;23;20817;-83
2021/10/24 05:48:12;;;;;;;9.83;8.07;;;5.30;98.30;;;;;;5124755;23;20730;-83
2021/10/24 05:50:16;;;;;;;10.10;8.00;;;5.30;98.30;;;;;;5125673;23;20505;-83
2021/10/24 05:52:19;;;;;;;9.20;7.70;;;5.30;98.30;;;;;;5125245;23;20432;-84
2021/10/24 05:54:22;;;;;;;12.67;8.80;;;5.30;98.30;;;;;;5125409;23;20420;-83
2021/10/24 05:56:25;;;;;;;10.93;7.97;;;5.30;98.30;;;;;;5117145;23;20740;-83
2021/10/24 05:58:28;;;;;;;12.43;8.53;;;5.30;98.30;;;;;;5117157;23;20503;-83
2021/10/24 06:00:32;;;;;;;12.50;8.00;;;5.30;98.30;;;;;;5125029;23;20468;-83
2021/10/24 06:02:37;;;;;;;10.80;7.80;;;5.30;98.30;;;;;;5125354;23;21169;-83
2021/10/24 06:04:40;;;;;;;11.33;8.00;;;5.20;98.30;;;;;;5125452;23;20494;-83
2021/10/24 06:06:44;;;;;;;15.53;8.30;;;5.20;98.30;;;;;;5124901;23;20900;-83
2021/10/24 06:08:47;;;;;;;15.57;8.07;;;5.20;98.30;;;;;;5126258;23;20424;-83
2021/10/24 06:10:53;;;;;;;16.20;9.20;;;5.30;98.30;;;;;;5125084;23;20437;-83
2021/10/24 06:12:56;;;;;;;14.00;8.70;;;5.20;98.30;;;;;;5125321;23;21286;-83
2021/10/24 06:15:01;;;;;;;13.97;8.23;;;5.20;98.30;;;;;;5127698;23;20736;-84
2021/10/24 06:17:07;;;;;;;15.57;7.30;;;5.10;98.30;;;;;;5129297;23;20452;-84
2021/10/24 06:19:12;;;;;;;11.00;7.37;;;5.10;98.30;;;;;;5126318;23;20964;-83
2021/10/24 06:21:15;;;;;;;11.93;8.27;;;5.10;98.30;;;;;;5125250;23;20417;-83
2021/10/24 06:23:18;;;;;;;11.60;8.23;;;5.20;98.30;;;;;;5125382;23;20423;-83
2021/10/24 06:25:21;;;;;;;13.50;9.37;;;5.20;98.30;;;;;;5125430;23;20495;-83
2021/10/24 06:27:24;;;;;;;10.80;9.70;;;5.20;98.30;;;;;;5125042;23;20905;-84
2021/10/24 06:29:27;;;;;;;11.47;9.70;;;5.20;98.30;;;;;;5125499;23;20407;-83
2021/10/24 06:31:32;;;;;;;12.30;8.63;;;5.30;98.30;;;;;;5125446;23;20508;-83
2021/10/24 06:33:35;;;;;;;11.87;8.93;;;5.30;98.30;;;;;;5125452;23;20529;-83
2021/10/24 06:35:40;;;;;;;15.83;8.80;;;5.30;98.30;;;;;;5124723;23;20498;-83
2021/10/24 06:37:45;;;;;;;15.80;11.07;;;5.30;98.30;;;;;;5124975;23;20485;-83
2021/10/24 06:39:48;;;;;;;12.70;8.67;;;5.30;98.30;;;;;;5124696;23;20451;-83
2021/10/24 06:41:54;;;;;;;16.83;9.03;;;5.40;98.30;;;;;;5124920;23;20458;-84
2021/10/24 06:43:59;;;;;;;12.37;8.60;;;5.30;98.30;;;;;;5126482;23;20468;-84
2021/10/24 06:46:02;;;;;;;11.50;8.40;;;5.40;98.30;;;;;;5125489;23;20484;-83
2021/10/24 06:48:06;;;;;;;14.30;8.73;;;5.50;98.30;;;;;;5125118;23;20475;-83
2021/10/24 06:50:11;;;;;;;11.03;8.47;;;5.50;98.30;;;;;;5126363;23;21032;-84
2021/10/24 06:52:16;;;;;;;12.87;7.90;;;5.50;98.30;;;;;;5124958;23;20425;-83
2021/10/24 06:54:19;;;;;;;12.87;8.13;;;5.50;98.30;;;;;;5124808;23;20445;-83
2021/10/24 06:56:22;;;;;;;12.17;6.87;;;5.40;98.30;;;;;;5116854;23;20469;-82
2021/10/24 06:58:25;;;;;;;9.73;7.70;;;5.50;98.30;;;;;;5124999;23;20797;-83
2021/10/24 07:00:28;;;;;;;9.47;6.60;;;5.50;98.30;;;;;;5125137;23;20425;-83
2021/10/24 07:02:32;;;;;;;14.13;7.40;;;5.60;98.30;;;;;;5124561;23;20994;-83
2021/10/24 07:04:35;;;;;;;12.83;7.40;;;5.70;98.30;;;;;;5124623;23;20457;-83
2021/10/24 07:06:38;;;;;;;10.90;6.73;;;5.80;98.30;;;;;;5124662;23;20426;-83
2021/10/24 07:08:43;;;;;;;12.10;6.50;;;5.90;98.30;;;;;;5124518;23;20477;-83
2021/10/24 07:10:46;;;;;;;11.47;8.60;;;6.00;98.30;;;;;;5124629;23;20437;-83
2021/10/24 07:12:52;;;;;;;12.20;7.07;;;6.00;98.30;;;;;;5116123;23;20506;-85
2021/10/24 07:14:55;;;;;;;9.33;7.57;;;6.20;98.30;;;;;;5123813;23;20529;-83
2021/10/24 07:16:58;;;;;;;9.83;6.70;;;6.20;98.30;;;;;;5124180;23;20437;-83
2021/10/24 07:19:01;;;;;;;10.87;7.80;;;6.20;98.30;;;;;;5125018;23;20814;-84
2021/10/24 07:21:05;;;;;;;7.97;6.77;;;6.20;98.30;;;;;;5124293;23;20429;-82
2021/10/24 07:23:08;;;;;;;15.70;7.03;;;6.30;98.30;;;;;;5124120;23;20477;-82
2021/10/24 07:25:13;;;;;;;8.27;7.00;;;6.30;98.30;;;;;;5128261;23;20966;-83
2021/10/24 07:27:17;;;;;;;10.43;6.43;;;6.50;98.30;;;;;;5123850;23;20434;-82
2021/10/24 07:29:20;;;;;;;8.93;7.50;;;6.50;98.30;;;;;;5124699;23;20472;-83
2021/10/24 07:31:23;;;;;;;14.33;7.23;;;6.50;98.30;;;;;;5124213;23;20426;-83
2021/10/24 07:33:27;;;;;;;9.60;7.63;;;6.60;98.30;;;;;;5124018;23;20445;-83
2021/10/24 07:35:30;;;;;;;10.90;7.60;;;6.50;98.30;;;;;;5123964;23;20444;-83
2021/10/24 07:37:34;;;;;;;11.53;7.03;;;6.80;98.30;;;;;;5127190;23;20437;-83
2021/10/24 07:39:37;;;;;;;14.03;7.30;;;6.80;98.30;;;;;;5128693;23;20446;-83
2021/10/24 07:41:41;;;;;;;9.37;6.87;;;6.80;98.30;;;;;;5128914;23;20449;-83
2021/10/24 07:43:45;;;;;;;11.50;8.23;;;6.80;98.30;;;;;;5124360;23;20508;-84
2021/10/24 07:45:48;;;;;;;11.40;7.87;;;6.90;98.30;;;;;;5123887;23;20446;-83
2021/10/24 07:47:51;;;;;;;15.80;8.73;;;6.90;98.30;;;;;;5123721;23;20436;-82
2021/10/24 07:49:55;;;;;;;9.90;7.47;;;7.00;98.30;;;;;;5124375;23;20540;-83
2021/10/24 07:51:59;;;;;;;8.27;7.03;;;7.00;98.30;;;;;;5124735;23;20407;-83
2021/10/24 07:54:03;;;;;;;13.20;8.00;;;7.10;98.30;;;;;;5124161;23;20442;-83
2021/10/24 07:56:08;;;;;;;11.40;6.80;;;7.10;98.30;;;;;;5124226;23;20434;-82
2021/10/24 07:58:13;;;;;;;11.63;8.00;;;7.20;98.30;;;;;;5124574;23;20422;-83
2021/10/24 08:00:16;;;;;;;9.20;7.60;;;7.20;98.30;;;;;;5124230;23;20919;-83
2021/10/24 08:02:19;;;;;;;10.50;7.40;;;7.30;98.30;;;;;;5123755;23;20425;-82
2021/10/24 08:04:22;;;;;;;11.37;7.60;;;7.40;98.30;;;;;;5123305;23;20455;-82
2021/10/24 08:06:25;;;;;;;12.27;7.50;;;7.60;98.30;;;;;;5124393;23;20420;-83
2021/10/24 08:08:29;;;;;;;11.30;7.00;;;7.70;98.30;;;;;;5123946;23;20763;-83
2021/10/24 08:10:32;;;;;;;7.90;6.40;;;7.80;98.30;;;;;;5126122;23;21062;-82
2021/10/24 08:12:36;;;;;;;10.57;5.93;;;7.90;98.30;;;;;;5126304;23;20485;-82
2021/10/24 08:14:40;;;;;;;9.53;6.43;;;8.00;98.30;;;;;;5125727;23;20453;-83
2021/10/24 08:16:43;;;;;;;8.17;6.27;;;8.20;98.30;;;;;;5124114;23;20437;-84
2021/10/24 08:18:47;;;;;;;17.70;6.70;;;8.30;98.30;;;;;;5124427;23;20417;-83
2021/10/24 08:20:50;;;;;;;10.43;7.47;;;8.40;98.30;;;;;;5124647;23;20915;-83
2021/10/24 08:22:53;;;;;;;8.17;6.80;;;8.50;98.30;;;;;;5124992;23;20775;-83
2021/10/24 08:24:56;;;;;;;6.80;5.93;;;8.60;98.30;;;;;;5124707;23;20432;-83
2021/10/24 08:27:00;;;;;;;12.00;6.50;;;8.60;98.30;;;;;;5126840;23;20796;-83
2021/10/24 08:29:09;;;;;;;7.90;5.73;;;8.60;98.30;;;;;;5124683;23;20803;-82
2021/10/24 08:31:16;;;;;;;7.57;5.83;;;8.80;98.30;;;;;;5123945;23;20453;-82
2021/10/24 08:33:20;;;;;;;11.87;7.40;;;8.90;98.30;;;;;;5124455;23;20764;-83
2021/10/24 08:35:23;;;;;;;7.77;6.77;;;9.00;98.30;;;;;;5124246;23;20528;-83
2021/10/24 08:37:27;;;;;;;17.87;7.00;;;9.00;98.30;;;;;;5123213;23;20432;-83
2021/10/24 08:39:33;;;;;;;11.53;6.00;;;9.00;98.30;;;;;;5124517;23;20434;-83
2021/10/24 08:41:39;;;;;;;9.73;6.40;;;9.10;98.30;;;;;;5124570;23;20822;-83
2021/10/24 08:43:45;;;;;;;9.27;7.40;;;9.10;98.30;;;;;;5124631;23;20788;-83
2021/10/24 08:45:49;;;;;;;10.00;6.73;;;9.00;98.30;;;;;;5124113;23;20430;-84
2021/10/24 08:47:54;;;;;;;11.13;6.10;;;9.00;98.30;;;;;;5117749;23;20430;-84
2021/10/24 08:49:57;;;;;;;7.60;5.93;;;9.10;98.30;;;;;;5125217;23;20449;-82
2021/10/24 08:52:06;;;;;;;9.50;5.60;;;9.20;98.30;;;;;;5128505;23;20433;-82
2021/10/24 08:54:10;;;;;;;10.53;5.97;;;9.20;98.30;;;;;;5126391;23;20452;-83
2021/10/24 08:56:17;;;;;;;13.23;5.80;;;9.50;98.30;;;;;;5129846;23;20429;-83
2021/10/24 08:58:21;;;;;;;11.80;6.10;;;9.70;98.30;;;;;;5139040;23;20430;-84
2021/10/24 09:00:24;;;;;;;8.10;5.87;;;9.60;98.30;;;;;;5139752;23;20422;-84
2021/10/24 09:02:55;;;;;;;10.13;6.27;;;9.70;98.30;;;;;;5139100;23;20433;-87
2021/10/24 09:05:00;;;;;;;11.40;6.80;;;9.70;98.30;;;;;;5134795;23;20426;-83
2021/10/24 09:07:04;;;;;;;10.03;5.63;;;9.70;98.30;;;;;;5128867;23;20429;-84
2021/10/24 09:09:12;;;;;;;7.50;6.10;;;9.90;98.30;;;;;;5128365;23;20433;-83
2021/10/24 09:11:21;;;;;;;14.90;6.27;;;10.00;98.30;;;;;;5129297;23;20425;-83
2021/10/24 09:13:27;;;;;;;7.87;5.30;;;10.10;98.30;;;;;;5128514;23;20451;-84
2021/10/24 09:15:53;;;;;;;8.17;5.83;;;10.20;98.30;;;;;;5129253;23;20508;-83
2021/10/24 09:18:11;;;;;;;13.37;5.57;;;10.30;98.30;;;;;;5129523;23;20445;-84
2021/10/24 09:20:27;;;;;;;7.70;5.33;;;10.30;98.30;;;;;;5138333;23;20445;-83
2021/10/24 09:22:32;;;;;;;7.87;5.70;;;10.30;98.30;;;;;;5138669;23;20457;-85
2021/10/24 09:24:36;;;;;;;10.00;5.50;;;10.50;98.30;;;;;;5138591;23;20417;-84
2021/10/24 09:26:40;;;;;;;16.60;6.00;;;10.60;98.30;;;;;;5140535;23;20429;-83
2021/10/24 09:28:57;;;;;;;8.63;5.60;;;10.80;98.30;;;;;;5140413;23;20437;-85
2021/10/24 09:31:04;;;;;;;8.40;5.93;;;10.70;98.30;;;;;;5133623;23;20512;-83
2021/10/24 09:36:25;;;;;;;9.70;5.70;;;10.80;98.30;;;;;;5081187;23;20433;-84
2021/10/24 09:38:28;;;;;;;7.30;5.50;;;11.30;98.30;;;;;;5128881;23;20421;-84
2021/10/24 09:40:35;;;;;;;7.10;5.67;;;11.60;98.30;;;;;;5128630;23;20418;-84
2021/10/24 09:42:38;;;;;;;7.83;5.70;;;11.40;98.30;;;;;;5128240;23;20516;-83
2021/10/24 09:45:04;;;;;;;8.03;5.53;;;11.30;98.30;;;;;;5127924;23;20429;-84
2021/10/24 09:47:08;;;;;;;14.73;5.43;;;11.10;98.30;;;;;;5127644;23;20428;-83
2021/10/24 09:49:17;;;;;;;7.63;5.37;;;11.40;98.30;;;;;;5128133;23;20803;-83
2021/10/24 09:51:34;;;;;;;8.60;5.23;;;11.30;98.30;;;;;;5127924;23;20417;-83
2021/10/24 09:56:03;;;;;;;9.30;5.30;;;11.50;98.30;;;;;;5157688;22;20455;-82
2021/10/24 10:01:36;;;;;;;11.63;5.63;;;11.90;98.30;;;;;;5172455;23;20399;-82
2021/10/24 10:04:26;;;;;;;7.13;5.60;;;12.10;98.30;;;;;;5183042;22;20447;-83
2021/10/24 10:07:17;;;;;;;9.43;5.50;;;12.20;98.30;;;;;;5173782;23;20491;-82
2021/10/24 10:09:31;;;;;;;6.43;4.90;;;12.30;98.30;;;;;;5182932;23;20427;-82
2021/10/24 10:11:44;;;;;;;21.97;11.63;;;12.70;98.30;;;;;;5182188;23;20458;-85
2021/10/24 10:14:05;;;;;;;11.10;5.47;;;12.90;98.30;;;;;;5149284;23;20528;-82
2021/10/24 10:16:24;;;;;;;10.83;5.50;;;13.10;98.30;;;;;;5181100;23;20484;-83
2021/10/24 10:18:29;;;;;;;8.57;5.43;;;13.20;98.30;;;;;;5182067;23;20420;-82
2021/10/24 10:20:41;;;;;;;8.97;5.30;;;13.20;98.30;;;;;;5181866;23;20927;-86
2021/10/24 10:23:01;;;;;;;8.83;5.73;;;13.30;98.30;;;;;;5183185;22;20443;-82
2021/10/24 10:25:09;;;;;;;9.87;5.60;;;13.40;98.30;;;;;;5181968;23;20427;-83
2021/10/24 10:27:40;;;;;;;8.30;5.73;;;13.60;98.30;;;;;;5181265;23;20413;-83
2021/10/24 10:29:51;;;;;;;7.40;5.43;;;14.10;98.30;;;;;;5106077;23;20427;-82
2021/10/24 10:32:13;;;;;;;11.37;5.77;;;14.20;98.30;;;;;;5178870;23;20427;-82
2021/10/24 10:34:16;;;;;;;7.07;5.40;;;14.30;98.30;;;;;;5182552;22;20494;-83
2021/10/24 10:36:20;;;;;;;8.67;4.93;;;14.70;98.30;;;;;;5180762;23;20426;-83
2021/10/24 10:38:37;;;;;;;6.80;5.63;;;14.80;97.80;;;;;;5178755;23;20426;-83
2021/10/24 10:40:42;;;;;;;10.13;5.20;;;14.60;98.10;;;;;;5178259;23;20415;-83
2021/10/24 10:43:01;;;;;;;7.13;4.57;;;14.80;96.60;;;;;;5177950;22;20503;-84
2021/10/24 10:45:39;;;;;;;6.07;4.93;;;15.00;96.60;;;;;;5179284;23;20419;-83
2021/10/24 10:47:52;;;;;;;6.57;4.70;;;14.90;96.20;;;;;;5139324;23;20428;-84
2021/10/24 10:49:55;;;;;;;6.30;4.93;;;14.70;96.00;;;;;;5178693;23;20428;-85
2021/10/24 10:52:39;;;;;;;5.73;5.00;;;14.70;96.50;;;;;;5178785;23;20424;-84
2021/10/24 10:54:55;;;;;;;8.23;5.23;;;14.40;97.10;;;;;;5177175;23;20507;-83
2021/10/24 10:57:00;;;;;;;8.03;6.30;;;14.70;98.20;;;;;;5177137;23;20416;-83
2021/10/24 10:59:06;;;;;;;8.10;4.30;;;14.80;97.30;;;;;;5177513;23;21263;-84
2021/10/24 11:01:21;;;;;;;9.40;5.93;;;14.90;96.90;;;;;;5177938;23;20499;-83
2021/10/24 11:03:43;;;;;;;6.60;5.00;;;15.40;95.80;;;;;;5176769;22;20440;-83